Time;durP1;ratioP1;P1;durP2;ratioP2;P2;SDS_P1;SDS_P2;PMS_P1;PMS_P2;Temp;Humidity;BMP_temperature;BMP_pressure;BME280_temperature;BME280_humidity;BME280_pressure;Samples;Min_cycle;Max_cycle;Signal;HPM_P1;HPM_P2
2023/06/27 03:01:36;;;;;;;2.17;1.98;;;28.40;42.60;;;;;;5421075;23;44848;-55
2023/06/27 03:04:02;;;;;;;2.15;1.85;;;28.40;42.60;;;;;;4987780;28;45179;-56
2023/06/27 03:06:27;;;;;;;1.90;1.80;;;28.40;42.50;;;;;;4983958;28;45243;-54
2023/06/27 03:08:54;;;;;;;2.65;2.17;;;28.40;42.60;;;;;;4992378;28;45331;-56
2023/06/27 03:11:20;;;;;;;2.55;2.28;;;28.30;42.50;;;;;;4979266;28;45561;-55
2023/06/27 03:13:45;;;;;;;3.28;1.92;;;28.40;42.60;;;;;;4988891;28;44875;-56
2023/06/27 03:16:11;;;;;;;2.40;2.20;;;28.40;42.60;;;;;;4979408;28;45720;-56
2023/06/27 03:18:36;;;;;;;2.10;1.95;;;28.30;42.50;;;;;;4986950;28;45955;-54
2023/06/27 03:21:02;;;;;;;2.30;2.00;;;28.40;42.70;;;;;;4983654;28;45155;-54
2023/06/27 03:23:28;;;;;;;4.15;2.03;;;28.40;42.70;;;;;;4969677;28;45200;-53
2023/06/27 03:25:53;;;;;;;2.30;2.10;;;28.40;42.70;;;;;;4983131;28;45440;-57
2023/06/27 03:28:19;;;;;;;2.58;2.17;;;28.40;42.70;;;;;;4982096;28;45389;-54
2023/06/27 03:30:44;;;;;;;2.42;2.22;;;28.40;42.70;;;;;;4978487;28;45404;-57
2023/06/27 03:33:10;;;;;;;2.15;1.95;;;28.40;42.80;;;;;;4968128;28;45184;-55
2023/06/27 03:35:36;;;;;;;2.65;2.33;;;28.30;42.70;;;;;;4984401;28;45258;-56
2023/06/27 03:38:02;;;;;;;2.17;1.98;;;28.40;42.80;;;;;;4991804;28;46181;-55
2023/06/27 03:40:28;;;;;;;2.38;2.17;;;28.40;42.80;;;;;;4983865;28;45033;-56
2023/06/27 03:42:55;;;;;;;2.15;1.95;;;28.40;42.80;;;;;;4990743;28;46799;-55
2023/06/27 03:45:21;;;;;;;2.25;2.05;;;28.40;42.80;;;;;;4985358;28;45473;-55
2023/06/27 03:47:47;;;;;;;2.20;2.00;;;28.30;42.70;;;;;;4985253;28;46967;-55
2023/06/27 03:50:12;;;;;;;2.15;1.95;;;28.40;42.80;;;;;;4983547;28;45835;-58
2023/06/27 03:52:38;;;;;;;2.30;2.10;;;28.30;42.70;;;;;;4965095;28;47170;-56
2023/06/27 03:55:05;;;;;;;2.00;1.85;;;28.40;42.80;;;;;;4986019;28;45491;-56
2023/06/27 03:57:30;;;;;;;1.88;1.77;;;28.30;42.80;;;;;;4971579;28;47354;-54
2023/06/27 03:59:56;;;;;;;2.22;2.00;;;28.30;42.70;;;;;;4985512;28;45712;-54
2023/06/27 04:02:21;;;;;;;2.15;1.88;;;28.30;42.80;;;;;;4972467;28;45705;-55
2023/06/27 04:04:47;;;;;;;2.35;2.15;;;28.30;42.80;;;;;;4981946;28;46159;-56
2023/06/27 04:07:14;;;;;;;2.00;1.80;;;28.30;42.70;;;;;;4968271;28;45107;-55
2023/06/27 04:09:40;;;;;;;2.13;1.77;;;28.40;42.80;;;;;;4989200;28;45144;-55
2023/06/27 04:12:06;;;;;;;2.15;1.95;;;28.30;42.70;;;;;;4970404;28;45261;-54
2023/06/27 04:14:31;;;;;;;2.10;1.90;;;28.30;42.70;;;;;;4986467;28;44912;-57
2023/06/27 04:16:57;;;;;;;1.85;1.73;;;28.30;42.70;;;;;;4979025;28;47131;-56
2023/06/27 04:19:22;;;;;;;1.90;1.80;;;28.30;42.70;;;;;;4990390;28;44978;-55
2023/06/27 04:21:48;;;;;;;2.00;1.77;;;28.30;42.70;;;;;;4984367;28;45383;-56
2023/06/27 04:24:14;;;;;;;2.65;1.98;;;28.30;42.70;;;;;;4987739;28;45266;-54
2023/06/27 04:26:42;;;;;;;2.17;1.98;;;28.30;42.70;;;;;;4978244;28;45983;-55
2023/06/27 04:29:08;;;;;;;2.22;2.03;;;28.30;42.70;;;;;;4988169;28;45293;-56
2023/06/27 04:31:33;;;;;;;1.77;1.67;;;28.30;42.70;;;;;;4974938;28;46022;-55
2023/06/27 04:33:59;;;;;;;1.90;1.70;;;28.30;42.80;;;;;;4988584;28;45540;-57
2023/06/27 04:36:26;;;;;;;2.20;2.00;;;28.30;42.80;;;;;;4979729;28;46011;-56
2023/06/27 04:38:52;;;;;;;1.80;1.70;;;28.30;42.80;;;;;;4971293;28;46371;-56
2023/06/27 04:41:17;;;;;;;2.53;2.00;;;28.30;42.90;;;;;;4975909;28;45081;-56
2023/06/27 04:43:43;;;;;;;1.65;1.55;;;28.30;43.00;;;;;;4987086;28;45709;-55
2023/06/27 04:46:08;;;;;;;2.10;1.90;;;28.30;42.90;;;;;;4975481;28;45948;-55
2023/06/27 04:48:34;;;;;;;1.95;1.70;;;28.30;42.90;;;;;;4988258;28;45226;-55
2023/06/27 04:50:59;;;;;;;1.88;1.77;;;28.30;42.90;;;;;;4981160;28;45117;-56
2023/06/27 04:53:25;;;;;;;2.20;1.90;;;28.30;42.90;;;;;;4983959;28;45068;-56
2023/06/27 04:55:52;;;;;;;1.95;1.77;;;28.30;42.90;;;;;;4978820;28;47051;-55
2023/06/27 04:58:18;;;;;;;1.85;1.52;;;28.30;42.90;;;;;;4971099;28;45450;-55
2023/06/27 05:00:44;;;;;;;2.10;1.90;;;28.30;42.90;;;;;;4958206;28;45287;-54
2023/06/27 05:03:10;;;;;;;1.70;1.60;;;28.30;42.90;;;;;;4984228;28;45773;-55
2023/06/27 05:05:36;;;;;;;2.75;2.05;;;28.30;42.90;;;;;;4980224;28;45633;-56
2023/06/27 05:08:01;;;;;;;1.92;1.73;;;28.30;42.90;;;;;;4982416;28;45370;-55
2023/06/27 05:10:27;;;;;;;1.75;1.65;;;28.30;42.90;;;;;;4981137;28;45699;-58
2023/06/27 05:12:52;;;;;;;1.73;1.63;;;28.30;42.90;;;;;;4951591;28;45280;-55
2023/06/27 05:15:21;;;;;;;1.92;1.70;;;28.30;43.00;;;;;;4981192;28;46199;-61
2023/06/27 05:17:55;;;;;;;1.80;1.70;;;28.30;42.90;;;;;;4983415;28;45497;-57
2023/06/27 05:20:22;;;;;;;2.13;1.55;;;28.30;43.00;;;;;;4978884;28;45029;-53
2023/06/27 05:22:47;;;;;;;1.63;1.52;;;28.30;42.90;;;;;;4971589;28;45318;-56
2023/06/27 05:25:13;;;;;;;1.85;1.73;;;28.30;42.90;;;;;;4985917;28;46052;-53
2023/06/27 05:27:39;;;;;;;2.25;1.67;;;28.30;42.90;;;;;;4984223;28;45535;-57
2023/06/27 05:30:05;;;;;;;1.58;1.48;;;28.40;42.90;;;;;;4980279;28;45374;-60
2023/06/27 05:32:30;;;;;;;2.00;1.80;;;28.30;42.90;;;;;;4927841;28;45190;-56
2023/06/27 05:34:56;;;;;;;1.70;1.50;;;28.30;42.90;;;;;;4979289;28;45481;-57
2023/06/27 05:37:21;;;;;;;1.60;1.50;;;28.30;42.90;;;;;;4977982;28;46096;-55
2023/06/27 05:39:47;;;;;;;1.63;1.45;;;28.30;42.90;;;;;;4967026;28;45562;-54
2023/06/27 05:42:12;;;;;;;1.70;1.52;;;28.30;42.90;;;;;;4977839;28;45314;-53
2023/06/27 05:44:38;;;;;;;1.77;1.67;;;28.40;43.00;;;;;;4979073;28;46091;-56
2023/06/27 05:47:05;;;;;;;1.40;1.30;;;28.40;42.90;;;;;;4957828;28;45358;-57
2023/06/27 05:49:30;;;;;;;1.55;1.35;;;28.30;42.90;;;;;;4951412;28;45796;-57
2023/06/27 05:51:56;;;;;;;1.67;1.55;;;28.30;42.90;;;;;;4980827;28;45513;-54
2023/06/27 05:54:21;;;;;;;1.48;1.38;;;28.40;43.00;;;;;;4986774;28;45654;-56
2023/06/27 05:56:47;;;;;;;1.55;1.45;;;28.40;42.90;;;;;;4980737;28;45336;-56
2023/06/27 05:59:12;;;;;;;2.33;1.70;;;28.30;42.90;;;;;;4972392;28;45443;-57
2023/06/27 06:01:38;;;;;;;6.68;2.50;;;28.30;41.20;;;;;;4975312;28;45625;-55
2023/06/27 06:04:04;;;;;;;6.28;2.17;;;28.10;39.40;;;;;;4985755;28;45589;-56
2023/06/27 06:06:33;;;;;;;3.80;1.52;;;27.90;38.30;;;;;;4983000;28;45137;-57
2023/06/27 06:08:59;;;;;;;2.83;1.17;;;27.70;37.80;;;;;;4973363;28;45276;-56
2023/06/27 06:11:24;;;;;;;2.67;1.10;;;27.50;37.40;;;;;;4982052;28;45469;-55
2023/06/27 06:13:50;;;;;;;4.78;1.33;;;27.30;37.30;;;;;;4985107;28;46133;-54
2023/06/27 06:16:16;;;;;;;1.55;1.00;;;27.20;37.10;;;;;;4974924;28;45785;-54
2023/06/27 06:18:41;;;;;;;3.25;0.95;;;27.10;37.20;;;;;;4983120;28;45510;-56
2023/06/27 06:21:07;;;;;;;2.30;1.00;;;27.10;37.30;;;;;;4978094;28;46392;-56
2023/06/27 06:23:33;;;;;;;1.63;0.95;;;27.00;37.20;;;;;;4988132;28;45526;-55
2023/06/27 06:25:58;;;;;;;5.85;1.10;;;27.10;37.10;;;;;;4951372;28;45473;-55
2023/06/27 06:28:24;;;;;;;3.08;1.20;;;27.00;36.90;;;;;;4984645;28;45232;-57
2023/06/27 06:30:50;;;;;;;2.08;1.25;;;27.00;36.90;;;;;;4984161;28;45494;-56
2023/06/27 06:33:15;;;;;;;2.45;1.20;;;27.00;36.70;;;;;;4989503;28;46099;-56
2023/06/27 06:35:41;;;;;;;1.27;0.85;;;26.90;36.80;;;;;;4955138;28;45701;-57
2023/06/27 06:38:06;;;;;;;1.52;0.98;;;26.90;36.70;;;;;;4989789;28;45491;-61
2023/06/27 06:40:32;;;;;;;1.73;1.13;;;26.90;36.80;;;;;;4985344;28;45423;-57
2023/06/27 06:42:57;;;;;;;2.28;1.02;;;26.80;36.80;;;;;;4993228;28;46149;-56
2023/06/27 06:45:23;;;;;;;2.08;1.00;;;26.80;36.80;;;;;;4979405;28;45047;-57
2023/06/27 06:47:48;;;;;;;4.00;1.25;;;26.80;36.80;;;;;;4987790;28;45282;-58
2023/06/27 06:50:14;;;;;;;2.33;1.13;;;26.80;36.90;;;;;;4966663;28;45344;-56
2023/06/27 06:52:40;;;;;;;2.10;0.82;;;26.80;36.80;;;;;;4983288;28;45264;-57
2023/06/27 06:55:06;;;;;;;2.58;1.00;;;26.70;36.80;;;;;;4985832;28;45552;-59
2023/06/27 06:57:32;;;;;;;5.00;1.10;;;26.70;36.70;;;;;;4988044;28;45228;-55
2023/06/27 06:59:57;;;;;;;1.88;1.00;;;26.70;36.80;;;;;;4980402;28;45484;-57
2023/06/27 07:02:23;;;;;;;2.00;1.20;;;26.70;36.80;;;;;;4959439;28;45326;-56
2023/06/27 07:04:48;;;;;;;2.95;0.90;;;26.70;36.60;;;;;;4971772;28;45533;-57
2023/06/27 07:07:14;;;;;;;4.80;1.00;;;26.70;36.50;;;;;;4983391;28;45268;-57
2023/06/27 07:09:40;;;;;;;2.80;0.90;;;26.70;36.50;;;;;;4984591;28;45001;-55
2023/06/27 07:12:06;;;;;;;6.80;1.17;;;26.80;36.40;;;;;;4969062;28;47029;-54
2023/06/27 07:14:31;;;;;;;1.60;0.80;;;26.80;36.40;;;;;;4986815;28;45102;-57
2023/06/27 07:16:57;;;;;;;1.83;0.82;;;26.90;36.10;;;;;;4980284;28;45601;-55
2023/06/27 07:19:22;;;;;;;2.35;0.85;;;26.90;35.60;;;;;;4985220;28;44678;-55
2023/06/27 07:21:48;;;;;;;2.65;1.00;;;27.00;35.50;;;;;;4983917;28;45833;-56
2023/06/27 07:24:13;;;;;;;2.15;0.63;;;27.00;35.30;;;;;;4971374;28;45497;-56
2023/06/27 07:26:39;;;;;;;3.17;0.90;;;27.00;35.20;;;;;;4966567;28;45580;-56
2023/06/27 07:29:04;;;;;;;1.58;0.70;;;27.00;35.20;;;;;;4990257;28;44951;-58
2023/06/27 07:31:30;;;;;;;2.60;0.70;;;27.00;35.20;;;;;;4979406;28;46204;-57
2023/06/27 07:33:55;;;;;;;1.92;0.85;;;27.00;35.00;;;;;;4983457;28;45793;-56
2023/06/27 07:36:21;;;;;;;1.40;1.05;;;27.10;35.10;;;;;;4982985;28;45582;-56
2023/06/27 07:38:46;;;;;;;1.83;0.85;;;27.10;34.80;;;;;;4990600;28;45445;-57
2023/06/27 07:41:12;;;;;;;3.47;0.70;;;27.00;34.70;;;;;;4986550;28;45339;-56
2023/06/27 07:43:38;;;;;;;2.38;0.77;;;27.00;34.60;;;;;;4987628;28;45640;-59
2023/06/27 07:46:03;;;;;;;1.27;0.65;;;27.00;34.60;;;;;;4981462;28;45711;-56
2023/06/27 07:48:29;;;;;;;1.10;0.70;;;27.00;34.40;;;;;;4966715;28;45331;-56
2023/06/27 07:50:55;;;;;;;1.13;0.60;;;27.00;34.50;;;;;;4961373;28;46273;-57
2023/06/27 07:53:21;;;;;;;2.67;0.70;;;27.00;34.40;;;;;;4985874;28;44978;-58
2023/06/27 07:55:46;;;;;;;1.48;0.65;;;27.00;34.40;;;;;;4983676;28;45359;-56
2023/06/27 07:58:12;;;;;;;2.58;0.82;;;27.00;34.30;;;;;;4986195;28;45322;-57
2023/06/27 08:00:38;;;;;;;2.90;0.90;;;27.00;34.20;;;;;;4976939;28;46311;-57
2023/06/27 08:03:04;;;;;;;1.08;0.75;;;27.00;34.20;;;;;;4982864;28;44951;-55
2023/06/27 08:05:34;;;;;;;1.65;0.80;;;27.10;34.20;;;;;;4985410;28;45465;-54
2023/06/27 08:08:00;;;;;;;2.15;0.80;;;27.10;34.20;;;;;;4988718;28;45216;-55
2023/06/27 08:10:27;;;;;;;1.17;0.77;;;27.10;34.00;;;;;;4980964;28;46051;-53
2023/06/27 08:12:53;;;;;;;2.25;0.70;;;27.10;34.00;;;;;;4985231;28;45388;-56
2023/06/27 08:15:19;;;;;;;1.27;0.63;;;27.00;34.10;;;;;;4981695;28;45449;-59
2023/06/27 08:17:44;;;;;;;0.40;0.40;;;27.00;34.30;;;;;;4966901;28;44828;-57
2023/06/27 08:20:11;;;;;;;2.58;0.65;;;26.90;34.30;;;;;;4967334;28;46151;-55
2023/06/27 08:22:36;;;;;;;2.40;0.90;;;26.90;34.30;;;;;;4989045;28;45047;-55
2023/06/27 08:25:02;;;;;;;2.58;1.00;;;26.80;34.20;;;;;;4987336;28;45022;-56
2023/06/27 08:27:28;;;;;;;3.08;0.75;;;26.80;34.40;;;;;;4984227;28;44673;-58
2023/06/27 08:29:53;;;;;;;2.13;0.77;;;26.70;34.30;;;;;;4988056;28;45971;-57
2023/06/27 08:32:19;;;;;;;1.55;0.80;;;26.70;34.30;;;;;;4978059;28;45372;-56
2023/06/27 08:34:45;;;;;;;2.55;0.63;;;26.60;34.40;;;;;;4987304;28;44695;-56
2023/06/27 08:37:11;;;;;;;2.13;0.90;;;26.60;34.40;;;;;;4979958;28;45591;-55
2023/06/27 08:39:36;;;;;;;1.13;0.82;;;26.60;34.30;;;;;;4989810;28;46175;-56
2023/06/27 08:42:02;;;;;;;2.35;0.90;;;26.60;34.10;;;;;;4982045;28;45499;-55
2023/06/27 08:44:28;;;;;;;1.63;0.98;;;26.70;34.00;;;;;;4972392;28;45471;-56
2023/06/27 08:46:53;;;;;;;4.13;0.70;;;26.70;33.90;;;;;;4976567;28;45648;-56
2023/06/27 08:49:22;;;;;;;1.30;0.68;;;26.70;33.90;;;;;;4958622;28;45176;-57
2023/06/27 08:51:50;;;;;;;1.55;0.50;;;26.70;33.80;;;;;;4952812;28;44690;-54
2023/06/27 08:54:20;;;;;;;2.42;0.60;;;26.80;33.50;;;;;;4957104;28;45529;-55
2023/06/27 08:56:45;;;;;;;2.35;0.77;;;26.80;33.50;;;;;;4946249;28;45532;-55
2023/06/27 08:59:13;;;;;;;1.52;0.70;;;26.80;33.50;;;;;;4982159;28;46094;-54
2023/06/27 09:01:38;;;;;;;2.92;0.70;;;26.90;33.40;;;;;;4958378;28;45462;-55
2023/06/27 09:04:04;;;;;;;3.08;0.98;;;26.80;33.30;;;;;;4952182;28;45688;-56
2023/06/27 09:06:29;;;;;;;2.25;0.60;;;26.90;33.10;;;;;;4964885;28;45239;-54
2023/06/27 09:08:55;;;;;;;1.45;0.57;;;26.90;33.00;;;;;;4966337;28;45937;-57
2023/06/27 09:11:20;;;;;;;0.80;0.60;;;26.90;32.90;;;;;;4981220;28;45528;-57
2023/06/27 09:13:46;;;;;;;0.60;0.60;;;26.90;33.00;;;;;;4988999;28;45350;-57
2023/06/27 09:16:12;;;;;;;1.55;0.73;;;26.90;33.10;;;;;;4978107;28;45448;-56
2023/06/27 09:18:38;;;;;;;1.38;0.80;;;26.80;33.10;;;;;;4970408;28;46293;-55
2023/06/27 09:21:03;;;;;;;1.50;0.60;;;26.80;33.30;;;;;;4982962;28;45517;-56
2023/06/27 09:23:30;;;;;;;0.93;0.60;;;26.70;33.50;;;;;;4984459;28;45310;-54
2023/06/27 09:26:09;;;;;;;2.72;0.80;;;26.70;33.60;;;;;;4979294;28;45574;-54
2023/06/27 09:28:44;;;;;;;3.38;0.60;;;26.70;33.20;;;;;;4980198;28;45298;-56
2023/06/27 09:31:10;;;;;;;2.25;0.88;;;26.80;33.30;;;;;;4977835;28;45464;-57
2023/06/27 09:33:36;;;;;;;1.10;0.60;;;26.80;33.60;;;;;;4974142;28;45637;-57
2023/06/27 09:36:01;;;;;;;1.40;0.80;;;26.70;33.30;;;;;;4959706;28;45085;-57
2023/06/27 09:38:27;;;;;;;2.33;0.70;;;26.80;33.20;;;;;;4986525;28;47365;-58
2023/06/27 09:41:02;;;;;;;1.13;0.50;;;26.70;33.20;;;;;;4951995;28;45199;-57
2023/06/27 09:43:29;;;;;;;2.75;0.68;;;26.80;32.80;;;;;;4986059;28;45341;-59
2023/06/27 09:45:59;;;;;;;2.42;0.50;;;26.70;33.20;;;;;;4964648;28;45255;-58
2023/06/27 09:48:24;;;;;;;2.97;0.68;;;26.70;32.80;;;;;;4967649;28;46199;-58
2023/06/27 09:50:51;;;;;;;3.88;0.80;;;26.80;32.90;;;;;;4982538;28;44753;-58
2023/06/27 09:53:17;;;;;;;1.13;0.43;;;26.80;32.90;;;;;;4948481;28;44946;-55
2023/06/27 09:55:45;;;;;;;1.95;0.60;;;26.80;32.90;;;;;;4986011;28;45631;-58
2023/06/27 09:58:11;;;;;;;4.05;0.75;;;26.80;32.70;;;;;;4986401;28;45969;-58
2023/06/27 10:00:37;;;;;;;2.40;0.55;;;26.80;32.60;;;;;;4982066;28;45244;-57
2023/06/27 10:03:03;;;;;;;0.90;0.60;;;26.90;32.30;;;;;;4969425;28;45206;-57
2023/06/27 10:05:28;;;;;;;3.63;0.73;;;26.90;32.20;;;;;;4949714;28;45646;-58
2023/06/27 10:07:54;;;;;;;2.65;0.80;;;26.90;32.00;;;;;;4991087;28;45084;-57
2023/06/27 10:10:20;;;;;;;1.85;0.70;;;26.80;32.10;;;;;;4985164;28;45152;-58
2023/06/27 10:12:46;;;;;;;1.58;0.50;;;26.80;32.10;;;;;;4989415;28;46109;-64
2023/06/27 10:15:14;;;;;;;1.88;0.70;;;26.80;32.10;;;;;;4968214;28;44995;-59
2023/06/27 10:17:40;;;;;;;1.30;0.60;;;26.80;31.90;;;;;;4967123;28;46925;-58
2023/06/27 10:20:08;;;;;;;1.58;0.60;;;26.90;31.90;;;;;;4986798;28;45136;-57
2023/06/27 10:22:34;;;;;;;0.95;0.50;;;26.90;31.90;;;;;;4971566;28;45256;-58
2023/06/27 10:25:04;;;;;;;1.73;0.47;;;26.90;31.80;;;;;;4971276;28;45569;-56
2023/06/27 10:27:35;;;;;;;1.10;0.65;;;26.90;31.40;;;;;;4972934;28;46292;-57
2023/06/27 10:30:11;;;;;;;3.40;0.60;;;26.90;31.30;;;;;;4989315;28;45465;-58
2023/06/27 10:32:43;;;;;;;3.30;0.70;;;26.90;31.10;;;;;;4970235;28;44980;-58
2023/06/27 10:35:10;;;;;;;1.67;0.50;;;26.90;31.10;;;;;;4982630;28;45124;-59
2023/06/27 10:37:37;;;;;;;3.00;0.73;;;26.80;31.40;;;;;;4961390;28;47023;-56
2023/06/27 10:40:04;;;;;;;1.45;0.75;;;26.80;31.40;;;;;;4956708;28;45340;-59
2023/06/27 10:42:31;;;;;;;1.90;0.90;;;26.90;31.30;;;;;;4972783;28;44765;-57
2023/06/27 10:45:09;;;;;;;2.00;0.80;;;26.90;31.10;;;;;;4987900;28;46073;-57
2023/06/27 10:47:35;;;;;;;4.80;0.70;;;26.90;31.10;;;;;;4985278;28;45247;-57
2023/06/27 10:50:06;;;;;;;1.50;0.70;;;26.90;31.20;;;;;;4987691;28;45475;-57
2023/06/27 10:52:32;;;;;;;2.10;0.90;;;26.90;31.20;;;;;;4972002;28;45523;-58
2023/06/27 10:55:15;;;;;;;3.03;0.60;;;26.90;31.20;;;;;;4990736;28;45513;-58
2023/06/27 10:57:45;;;;;;;1.20;0.82;;;26.90;30.60;;;;;;4986778;28;46072;-57
2023/06/27 11:00:23;;;;;;;2.67;0.50;;;26.90;31.10;;;;;;4967329;28;45239;-56
2023/06/27 11:02:49;;;;;;;0.98;0.52;;;26.90;31.20;;;;;;4987354;28;45327;-58
2023/06/27 11:05:18;;;;;;;0.98;0.63;;;26.90;31.40;;;;;;4969447;28;45493;-59
2023/06/27 11:07:53;;;;;;;1.50;0.90;;;26.90;31.30;;;;;;4986465;28;46023;-58
2023/06/27 11:10:23;;;;;;;1.95;0.82;;;26.90;31.10;;;;;;4987383;28;45407;-60
2023/06/27 11:12:49;;;;;;;1.95;0.60;;;26.90;31.40;;;;;;4985901;28;46641;-57
2023/06/27 11:15:15;;;;;;;2.88;0.90;;;26.90;31.50;;;;;;4977913;28;45605;-57
2023/06/27 11:17:40;;;;;;;0.68;0.52;;;26.90;31.50;;;;;;4970790;28;47116;-56
2023/06/27 11:20:08;;;;;;;2.65;0.80;;;26.90;31.50;;;;;;4972205;28;45617;-60
2023/06/27 11:22:33;;;;;;;2.22;0.80;;;26.90;31.40;;;;;;4973792;28;45911;-58
2023/06/27 11:24:59;;;;;;;1.73;0.60;;;26.90;31.50;;;;;;4959612;28;45185;-57
2023/06/27 11:27:31;;;;;;;1.00;0.60;;;26.90;31.50;;;;;;4970971;28;45626;-58
2023/06/27 11:29:59;;;;;;;1.73;0.60;;;26.90;31.10;;;;;;4986811;28;45211;-58
2023/06/27 11:32:25;;;;;;;2.53;0.80;;;26.90;31.20;;;;;;4977224;28;45163;-58
2023/06/27 11:34:51;;;;;;;3.88;0.63;;;26.90;31.20;;;;;;4985657;28;45445;-58
2023/06/27 11:37:16;;;;;;;1.35;0.70;;;26.90;31.20;;;;;;4985823;28;45933;-59
2023/06/27 11:39:52;;;;;;;1.48;0.57;;;26.90;31.10;;;;;;4975711;28;45376;-58
2023/06/27 11:42:18;;;;;;;1.85;0.70;;;27.00;30.60;;;;;;4985244;28;45411;-57
2023/06/27 11:44:43;;;;;;;1.10;0.70;;;26.90;30.80;;;;;;4990284;28;45623;-57
2023/06/27 11:47:09;;;;;;;1.23;0.63;;;26.90;30.80;;;;;;4964461;28;45877;-58
2023/06/27 11:49:35;;;;;;;3.67;0.70;;;26.90;30.80;;;;;;4987772;28;45595;-58
2023/06/27 11:52:00;;;;;;;0.85;0.57;;;26.90;30.80;;;;;;4981907;28;45738;-58
2023/06/27 11:54:26;;;;;;;1.98;0.50;;;26.90;30.80;;;;;;4987435;28;45330;-57
2023/06/27 11:56:51;;;;;;;1.98;0.73;;;27.00;30.70;;;;;;4982979;28;46082;-57
2023/06/27 11:59:28;;;;;;;1.67;0.57;;;27.00;30.70;;;;;;4968492;28;45778;-57
2023/06/27 12:01:53;;;;;;;0.60;0.55;;;27.00;30.60;;;;;;4965784;28;45400;-57
2023/06/27 12:04:19;;;;;;;0.95;0.57;;;26.90;30.50;;;;;;4989307;28;44731;-57
2023/06/27 12:06:46;;;;;;;1.20;0.65;;;26.90;31.00;;;;;;4984848;28;45454;-57
2023/06/27 12:09:28;;;;;;;0.80;0.70;;;26.90;30.30;;;;;;4988887;28;45347;-58
2023/06/27 12:11:58;;;;;;;1.00;0.70;;;26.90;29.90;;;;;;4982335;28;44733;-58
2023/06/27 12:14:24;;;;;;;2.65;0.75;;;26.90;30.40;;;;;;4989286;28;45539;-58
2023/06/27 12:16:50;;;;;;;1.65;0.80;;;26.90;30.40;;;;;;4984340;28;45352;-58
2023/06/27 12:19:18;;;;;;;0.95;0.60;;;26.90;30.50;;;;;;4974094;28;45078;-57
2023/06/27 12:21:43;;;;;;;1.70;1.00;;;26.90;30.30;;;;;;4955329;28;45577;-58
2023/06/27 12:24:09;;;;;;;1.15;0.60;;;26.90;30.40;;;;;;4970660;28;45552;-58
2023/06/27 12:26:34;;;;;;;3.63;0.82;;;26.90;30.40;;;;;;4985691;28;46130;-57
2023/06/27 12:29:04;;;;;;;4.20;0.90;;;26.90;30.40;;;;;;4988024;28;45286;-58
2023/06/27 12:31:30;;;;;;;1.38;0.47;;;26.90;30.40;;;;;;4949878;28;45628;-57
2023/06/27 12:33:55;;;;;;;2.53;0.77;;;26.90;30.60;;;;;;4985762;28;45492;-58
2023/06/27 12:36:22;;;;;;;2.00;0.70;;;26.90;30.50;;;;;;4982606;28;46014;-57
2023/06/27 12:38:49;;;;;;;1.40;0.90;;;26.90;30.40;;;;;;4990356;28;44960;-58
2023/06/27 12:41:16;;;;;;;1.38;0.60;;;26.90;30.50;;;;;;4983684;28;45386;-57
2023/06/27 12:43:42;;;;;;;0.80;0.70;;;26.90;30.50;;;;;;4987618;28;45416;-57
2023/06/27 12:46:07;;;;;;;1.20;0.63;;;26.90;30.70;;;;;;4971075;28;45202;-57
2023/06/27 12:48:34;;;;;;;2.72;1.02;;;26.90;30.80;;;;;;4976205;28;45524;-58
2023/06/27 12:50:59;;;;;;;1.48;0.60;;;27.00;30.90;;;;;;4985811;28;45341;-58
2023/06/27 12:53:25;;;;;;;1.42;0.60;;;27.00;30.70;;;;;;4969928;28;45012;-57
2023/06/27 12:55:51;;;;;;;3.70;0.70;;;27.00;30.70;;;;;;4978811;28;46132;-55
2023/06/27 12:58:17;;;;;;;3.65;0.60;;;27.10;30.80;;;;;;4970863;28;45768;-59
2023/06/27 13:00:43;;;;;;;1.40;0.65;;;27.10;30.80;;;;;;4982766;28;45784;-57
2023/06/27 13:03:08;;;;;;;1.05;0.60;;;27.10;30.70;;;;;;4968468;28;44982;-58
2023/06/27 13:05:34;;;;;;;1.58;0.80;;;27.10;30.60;;;;;;4984524;28;45954;-58
2023/06/27 13:07:59;;;;;;;3.17;0.90;;;27.20;30.50;;;;;;4986330;28;44605;-58
2023/06/27 13:10:26;;;;;;;1.50;0.77;;;27.20;30.50;;;;;;4963570;28;45673;-58
2023/06/27 13:12:52;;;;;;;3.42;0.70;;;27.20;30.40;;;;;;4964683;28;45510;-58
2023/06/27 13:15:18;;;;;;;2.03;0.65;;;27.20;30.40;;;;;;4969357;28;46137;-58
2023/06/27 13:17:45;;;;;;;2.63;0.73;;;27.20;30.30;;;;;;4953551;28;44976;-57
2023/06/27 13:20:11;;;;;;;2.35;0.80;;;27.20;30.20;;;;;;4992411;28;45271;-56
2023/06/27 13:22:37;;;;;;;2.10;0.88;;;27.20;30.20;;;;;;4995001;28;45124;-56
2023/06/27 13:25:04;;;;;;;1.95;0.68;;;27.20;30.00;;;;;;4988387;28;46497;-63
2023/06/27 13:27:29;;;;;;;1.75;0.85;;;27.20;30.00;;;;;;4971393;28;45076;-57
2023/06/27 13:29:55;;;;;;;1.77;0.80;;;27.20;30.00;;;;;;4972154;28;45582;-57
2023/06/27 13:32:21;;;;;;;2.13;0.82;;;27.30;30.00;;;;;;4982507;28;45662;-57
2023/06/27 13:34:47;;;;;;;1.52;0.80;;;27.30;30.00;;;;;;4991609;28;45322;-59
2023/06/27 13:37:12;;;;;;;1.73;0.82;;;27.30;30.00;;;;;;4987220;28;45635;-59
2023/06/27 13:39:38;;;;;;;1.17;0.63;;;27.30;30.00;;;;;;4993925;28;45003;-57
2023/06/27 13:42:04;;;;;;;2.90;0.68;;;27.30;30.00;;;;;;4985625;28;44929;-58
2023/06/27 13:44:30;;;;;;;1.33;0.70;;;27.30;30.00;;;;;;4990645;28;45145;-57
2023/06/27 13:46:55;;;;;;;2.17;1.00;;;27.30;30.00;;;;;;4966255;28;45018;-55
2023/06/27 13:49:21;;;;;;;2.30;1.00;;;27.30;29.90;;;;;;4989772;28;45460;-56
2023/06/27 13:51:46;;;;;;;1.80;0.80;;;27.40;30.00;;;;;;4968664;28;45074;-57
2023/06/27 13:54:12;;;;;;;2.85;0.95;;;27.40;30.00;;;;;;4983151;28;46469;-57
2023/06/27 13:56:37;;;;;;;2.08;0.98;;;27.40;29.90;;;;;;4984523;28;45323;-58
2023/06/27 13:59:03;;;;;;;2.00;0.90;;;27.50;29.90;;;;;;4973095;28;45096;-57
2023/06/27 14:01:29;;;;;;;1.88;0.95;;;27.50;29.90;;;;;;4964378;28;45264;-57
2023/06/27 14:03:58;;;;;;;3.35;0.70;;;27.50;29.70;;;;;;4989617;28;45485;-57
2023/06/27 14:06:25;;;;;;;1.52;0.88;;;27.50;29.80;;;;;;4983592;28;45605;-57
2023/06/27 14:08:51;;;;;;;1.20;0.98;;;27.50;30.20;;;;;;4978032;28;45560;-57
2023/06/27 14:11:17;;;;;;;2.85;0.75;;;27.50;29.70;;;;;;4985977;28;45606;-57
2023/06/27 14:13:44;;;;;;;2.03;0.80;;;27.50;29.60;;;;;;4974269;28;45952;-56
2023/06/27 14:16:10;;;;;;;4.75;0.68;;;27.60;29.70;;;;;;4978033;28;45145;-58
2023/06/27 14:18:36;;;;;;;3.00;0.75;;;27.60;29.60;;;;;;4984362;28;45240;-56
2023/06/27 14:21:07;;;;;;;1.67;0.85;;;27.50;29.60;;;;;;4984803;28;44885;-56
2023/06/27 14:23:36;;;;;;;1.50;0.65;;;27.60;29.60;;;;;;4986678;28;45303;-54
2023/06/27 14:26:03;;;;;;;1.30;0.75;;;27.60;29.60;;;;;;4979568;28;45274;-58
2023/06/27 14:28:28;;;;;;;0.63;0.60;;;27.60;29.60;;;;;;4989956;28;45548;-56
2023/06/27 14:30:54;;;;;;;2.42;1.02;;;27.60;29.50;;;;;;4980415;28;45054;-58
2023/06/27 14:33:21;;;;;;;1.35;0.80;;;27.60;29.50;;;;;;4985742;28;45497;-59
2023/06/27 14:35:50;;;;;;;0.98;0.65;;;27.60;29.50;;;;;;4983812;28;45707;-58
2023/06/27 14:38:15;;;;;;;1.73;0.65;;;27.70;29.50;;;;;;4987092;28;45332;-58
2023/06/27 14:40:41;;;;;;;1.10;0.73;;;27.70;29.60;;;;;;4964845;28;45757;-57
2023/06/27 14:43:06;;;;;;;4.20;0.77;;;27.70;29.60;;;;;;4989970;28;45987;-57
2023/06/27 14:45:32;;;;;;;2.03;0.77;;;27.70;29.40;;;;;;4978838;28;45253;-57
2023/06/27 14:47:57;;;;;;;2.85;1.30;;;27.70;29.40;;;;;;4982409;28;44700;-57
2023/06/27 14:50:23;;;;;;;0.73;0.70;;;27.70;29.40;;;;;;4978479;28;45490;-57
2023/06/27 14:52:49;;;;;;;1.85;0.70;;;27.70;29.30;;;;;;4973619;28;46192;-57
2023/06/27 14:55:14;;;;;;;2.47;0.82;;;27.70;29.30;;;;;;4982971;28;45523;-56
2023/06/27 14:57:40;;;;;;;1.80;0.85;;;27.80;29.30;;;;;;4986349;28;45009;-57
2023/06/27 15:00:09;;;;;;;1.02;0.50;;;27.80;29.20;;;;;;4984546;28;45333;-59
2023/06/27 15:02:34;;;;;;;2.08;0.88;;;27.80;29.20;;;;;;4947616;28;46156;-56
2023/06/27 15:05:00;;;;;;;3.60;0.77;;;27.80;29.20;;;;;;4969764;28;44991;-57
2023/06/27 15:07:25;;;;;;;1.75;0.82;;;27.80;29.10;;;;;;4982544;28;45317;-57
2023/06/27 15:09:51;;;;;;;1.23;0.80;;;27.80;29.00;;;;;;4988872;28;46000;-57
2023/06/27 15:12:17;;;;;;;2.65;0.90;;;27.90;29.00;;;;;;4981321;28;45482;-57
2023/06/27 15:14:49;;;;;;;2.40;0.90;;;27.90;29.10;;;;;;4988809;28;45452;-57
2023/06/27 15:17:16;;;;;;;2.03;1.00;;;27.90;29.10;;;;;;4975263;28;45267;-57
2023/06/27 15:19:43;;;;;;;1.27;0.90;;;27.90;29.10;;;;;;4989567;28;45965;-58
2023/06/27 15:22:08;;;;;;;1.85;0.80;;;27.90;29.10;;;;;;4961924;28;46186;-58
2023/06/27 15:24:34;;;;;;;1.55;0.80;;;27.90;29.00;;;;;;4988124;28;45444;-58
2023/06/27 15:26:59;;;;;;;2.17;1.38;;;27.90;29.00;;;;;;4984495;28;45589;-57
2023/06/27 15:29:25;;;;;;;2.20;0.80;;;27.90;29.00;;;;;;4984088;28;45615;-57
2023/06/27 15:31:50;;;;;;;3.13;1.13;;;27.90;28.90;;;;;;4978619;28;46295;-58
2023/06/27 15:34:16;;;;;;;2.60;1.02;;;27.90;28.90;;;;;;4983566;28;45748;-58
2023/06/27 15:36:41;;;;;;;3.10;1.40;;;27.90;28.90;;;;;;4976372;28;44998;-58
2023/06/27 15:39:07;;;;;;;4.57;1.20;;;27.90;29.10;;;;;;4984468;28;45739;-59
2023/06/27 15:41:32;;;;;;;2.05;0.90;;;27.90;29.00;;;;;;4981774;28;46026;-58
2023/06/27 15:43:58;;;;;;;1.33;0.73;;;27.90;29.00;;;;;;4986230;28;45647;-58